Time;durP1;ratioP1;P1;durP2;ratioP2;P2;SDS_P1;SDS_P2;PMS_P1;PMS_P2;Temp;Humidity;BMP_temperature;BMP_pressure;BME280_temperature;BME280_humidity;BME280_pressure;Samples;Min_cycle;Max_cycle;Signal;HPM_P1;HPM_P2
2023/10/20 00:00:14;;;;;;;;;;;7.70;95.70;;;;;;5054009;28;19904;-56
2023/10/20 00:02:46;;;;;;;;;;;7.70;95.70;;;;;;5033869;28;19984;-54
2023/10/20 00:05:13;;;;;;;;;;;7.70;95.70;;;;;;5033526;28;19909;-53
2023/10/20 00:07:40;;;;;;;;;;;7.70;95.70;;;;;;5035786;28;20003;-50
2023/10/20 00:10:09;;;;;;;;;;;7.70;95.60;;;;;;5053499;28;19918;-57
2023/10/20 00:12:38;;;;;;;;;;;7.70;95.70;;;;;;5041715;28;19928;-57
2023/10/20 00:15:13;;;;;;;;;;;7.70;95.70;;;;;;5033580;28;19905;-57
2023/10/20 00:17:41;;;;;;;;;;;7.70;95.70;;;;;;5045044;28;20297;-55
2023/10/20 00:20:15;;;;;;;;;;;7.70;95.70;;;;;;5033557;28;19905;-53
2023/10/20 00:22:42;;;;;;;;;;;7.70;95.70;;;;;;5050375;28;19927;-56
2023/10/20 00:25:11;;;;;;;;;;;7.70;95.80;;;;;;5050828;28;19955;-51
2023/10/20 00:27:38;;;;;;;;;;;7.70;95.70;;;;;;5036236;28;19923;-53
2023/10/20 00:30:09;;;;;;;;;;;7.70;95.80;;;;;;5053171;28;20381;-56
2023/10/20 00:32:41;;;;;;;;;;;7.60;95.70;;;;;;5053059;28;19905;-57
2023/10/20 00:35:09;;;;;;;;;;;7.70;95.90;;;;;;5052145;28;19909;-57
2023/10/20 00:37:36;;;;;;;;;;;7.80;95.90;;;;;;5035045;28;19916;-53
2023/10/20 00:40:09;;;;;;;;;;;7.80;95.90;;;;;;5052917;28;19905;-54
2023/10/20 00:42:38;;;;;;;;;;;7.80;95.80;;;;;;5052260;28;19909;-56
2023/10/20 00:45:15;;;;;;;;;;;7.80;95.70;;;;;;5052185;28;19908;-53
2023/10/20 00:47:44;;;;;;;;;;;7.80;95.80;;;;;;5035354;28;19913;-50
2023/10/20 00:50:13;;;;;;;;;;;7.80;95.80;;;;;;5022407;28;19928;-57
2023/10/20 00:52:52;;;;;;;;;;;7.80;95.90;;;;;;5034933;28;19944;-54
2023/10/20 00:55:22;;;;;;;;;;;7.80;95.80;;;;;;5051217;28;19915;-57
2023/10/20 00:57:48;;;;;;;;;;;7.90;95.80;;;;;;5035410;28;19913;-55
2023/10/20 01:00:15;;;;;;;;;;;7.90;95.80;;;;;;5032988;28;19909;-55
2023/10/20 01:02:45;;;;;;;;;;;7.90;95.80;;;;;;5027956;28;19963;-57
2023/10/20 01:05:14;;;;;;;;;;;7.80;95.80;;;;;;5033061;28;20313;-57
2023/10/20 01:07:44;;;;;;;;;;;7.90;95.90;;;;;;5043569;28;19912;-53
2023/10/20 01:10:11;;;;;;;;;;;7.80;95.80;;;;;;5051063;28;19917;-53
2023/10/20 01:12:38;;;;;;;;;;;7.80;95.90;;;;;;5052767;28;20261;-52
2023/10/20 01:15:09;;;;;;;;;;;7.80;95.90;;;;;;5052207;28;19912;-50
2023/10/20 01:17:35;;;;;;;;;;;7.80;95.90;;;;;;5051770;28;19921;-56
2023/10/20 01:20:03;;;;;;;;;;;7.80;96.00;;;;;;5035299;28;20325;-51
2023/10/20 01:22:30;;;;;;;;;;;7.80;95.90;;;;;;5051776;28;19919;-57
2023/10/20 01:24:59;;;;;;;;;;;7.90;96.00;;;;;;5052184;28;20002;-57
2023/10/20 01:27:26;;;;;;;;;;;7.90;96.00;;;;;;5052860;28;19905;-56
2023/10/20 01:29:53;;;;;;;;;;;7.90;96.00;;;;;;5052591;28;19906;-57
2023/10/20 01:32:21;;;;;;;;;;;7.90;96.00;;;;;;5042027;28;19963;-57
2023/10/20 01:34:51;;;;;;;;;;;7.80;96.00;;;;;;5052809;28;19912;-55
2023/10/20 01:37:18;;;;;;;;;;;7.80;95.90;;;;;;5052265;28;19913;-57
2023/10/20 01:39:47;;;;;;;;;;;7.80;95.90;;;;;;5041761;28;20230;-55
2023/10/20 01:42:15;;;;;;;;;;;7.80;95.90;;;;;;5043700;28;20356;-53
2023/10/20 01:44:41;;;;;;;;;;;7.80;96.00;;;;;;5052411;28;19966;-52
2023/10/20 01:47:07;;;;;;;;;;;7.80;96.00;;;;;;5036263;28;20247;-53
2023/10/20 01:49:33;;;;;;;;;;;7.90;96.10;;;;;;5032661;28;19916;-52
2023/10/20 01:51:59;;;;;;;;;;;7.90;96.10;;;;;;5039603;28;19912;-56
2023/10/20 01:54:25;;;;;;;;;;;7.90;96.10;;;;;;5052473;28;19920;-55
2023/10/20 01:56:51;;;;;;;;;;;7.80;96.00;;;;;;5052089;28;19916;-57
2023/10/20 01:59:18;;;;;;;;;;;7.80;95.90;;;;;;5051777;28;20014;-57
2023/10/20 02:01:44;;;;;;;;;;;7.80;96.00;;;;;;5052463;28;20408;-54
2023/10/20 02:04:09;;;;;;;;;;;7.80;96.00;;;;;;5052023;28;20035;-54
2023/10/20 02:06:36;;;;;;;;;;;7.80;96.00;;;;;;5036463;28;20015;-58
2023/10/20 02:09:03;;;;;;;;;;;7.80;95.90;;;;;;5046128;28;20339;-56
2023/10/20 02:11:29;;;;;;;;;;;7.80;95.90;;;;;;5038162;28;19905;-53
2023/10/20 02:13:57;;;;;;;;;;;7.80;95.80;;;;;;5055517;28;19917;-55
2023/10/20 02:16:22;;;;;;;;;;;7.80;95.90;;;;;;5065882;28;20002;-55
2023/10/20 02:18:49;;;;;;;;;;;7.70;95.90;;;;;;5073264;28;19999;-56
2023/10/20 02:21:15;;;;;;;;;;;7.70;95.90;;;;;;5075457;28;19912;-53
2023/10/20 02:23:42;;;;;;;;;;;7.70;95.80;;;;;;5063059;28;19919;-57
2023/10/20 02:26:08;;;;;;;;;;;7.70;95.80;;;;;;5075738;28;19944;-57
2023/10/20 02:28:37;;;;;;;;;;;7.70;95.80;;;;;;5063703;28;19974;-50
2023/10/20 02:31:13;;;;;;;;;;;7.70;95.80;;;;;;5055735;28;19915;-51
2023/10/20 02:33:40;;;;;;;;;;;7.70;95.80;;;;;;5061373;28;20378;-55
2023/10/20 02:36:07;;;;;;;;;;;7.70;95.80;;;;;;5075030;28;19909;-55
2023/10/20 02:38:33;;;;;;;;;;;7.70;95.60;;;;;;5071953;28;19909;-56
2023/10/20 02:41:01;;;;;;;;;;;7.70;95.70;;;;;;5069135;28;19909;-52
2023/10/20 02:43:28;;;;;;;;;;;7.70;95.70;;;;;;5075334;28;19908;-48
2023/10/20 02:45:55;;;;;;;;;;;7.60;95.50;;;;;;5075096;28;19909;-53
2023/10/20 02:48:26;;;;;;;;;;;7.60;95.50;;;;;;5059043;28;20393;-53
2023/10/20 02:50:53;;;;;;;;;;;7.60;95.60;;;;;;5055084;28;20003;-51
2023/10/20 02:53:18;;;;;;;;;;;7.60;95.50;;;;;;5074920;28;20471;-51
2023/10/20 02:55:45;;;;;;;;;;;7.70;95.50;;;;;;5067094;28;19919;-50
2023/10/20 02:58:12;;;;;;;;;;;7.60;95.50;;;;;;5054906;28;20011;-55
2023/10/20 03:00:50;;;;;;;;;;;7.60;95.60;;;;;;5055128;28;20006;-50
2023/10/20 03:03:17;;;;;;;;;;;7.60;95.60;;;;;;5056494;28;19913;-52
2023/10/20 03:05:45;;;;;;;;;;;7.60;95.50;;;;;;5055081;28;19905;-52
2023/10/20 03:08:13;;;;;;;;;;;7.70;95.50;;;;;;5056686;28;19969;-52
2023/10/20 03:10:43;;;;;;;;;;;7.60;95.50;;;;;;5074674;28;20330;-53
2023/10/20 03:13:10;;;;;;;;;;;7.60;95.60;;;;;;5072625;28;19912;-48
2023/10/20 03:15:37;;;;;;;;;;;7.60;95.50;;;;;;5074187;28;19916;-48
2023/10/20 03:18:14;;;;;;;;;;;7.60;95.50;;;;;;5059631;28;19917;-48
2023/10/20 03:20:41;;;;;;;;;;;7.60;95.40;;;;;;5054344;28;19909;-47
2023/10/20 03:23:09;;;;;;;;;;;7.50;95.50;;;;;;5069957;28;19909;-48
2023/10/20 03:25:45;;;;;;;;;;;7.50;95.50;;;;;;5074121;28;19908;-49
2023/10/20 03:28:20;;;;;;;;;;;7.60;95.40;;;;;;5063791;28;20556;-51
2023/10/20 03:30:48;;;;;;;;;;;7.60;95.30;;;;;;5074275;28;19909;-49
2023/10/20 03:33:15;;;;;;;;;;;7.60;95.30;;;;;;5058878;28;20215;-51
2023/10/20 03:35:42;;;;;;;;;;;7.60;95.30;;;;;;5073654;28;20274;-52
2023/10/20 03:38:09;;;;;;;;;;;7.50;95.30;;;;;;5074209;28;19951;-50
2023/10/20 03:40:46;;;;;;;;;;;7.50;95.30;;;;;;5072832;28;20296;-51
2023/10/20 03:43:16;;;;;;;;;;;7.50;95.20;;;;;;5067943;28;19912;-47
2023/10/20 03:45:54;;;;;;;;;;;7.50;95.10;;;;;;5057737;28;19931;-48
2023/10/20 03:48:23;;;;;;;;;;;7.50;95.00;;;;;;5066478;28;19912;-47
2023/10/20 03:50:51;;;;;;;;;;;7.50;95.00;;;;;;5068718;28;20008;-48
2023/10/20 03:53:29;;;;;;;;;;;7.50;94.90;;;;;;5070857;28;20347;-46
2023/10/20 03:56:04;;;;;;;;;;;7.50;94.80;;;;;;5069110;28;19961;-49
2023/10/20 03:58:30;;;;;;;;;;;7.40;94.70;;;;;;5070557;28;20613;-46
2023/10/20 04:01:07;;;;;;;;;;;7.50;94.70;;;;;;5060362;28;19932;-48
2023/10/20 04:03:34;;;;;;;;;;;7.50;94.60;;;;;;5071548;28;19965;-50
2023/10/20 04:06:04;;;;;;;;;;;7.50;94.50;;;;;;5072168;28;20324;-49
2023/10/20 04:08:31;;;;;;;;;;;7.40;94.40;;;;;;5072993;28;19917;-51
2023/10/20 04:10:59;;;;;;;;;;;7.50;94.40;;;;;;5073293;28;19908;-49
2023/10/20 04:13:26;;;;;;;;;;;7.50;94.40;;;;;;5054585;28;19924;-47
2023/10/20 04:15:52;;;;;;;;;;;7.50;94.40;;;;;;5070617;28;19904;-47
2023/10/20 04:18:20;;;;;;;;;;;7.50;94.40;;;;;;5069872;28;19922;-48
2023/10/20 04:20:48;;;;;;;;;;;7.50;94.40;;;;;;5072831;28;19915;-51
2023/10/20 04:23:18;;;;;;;;;;;7.50;94.40;;;;;;5072109;28;19913;-48
2023/10/20 04:25:55;;;;;;;;;;;7.50;94.40;;;;;;5073451;28;19912;-47
2023/10/20 04:28:32;;;;;;;;;;;7.50;94.30;;;;;;5061374;28;19908;-48
2023/10/20 04:56:21;;;;;;;;;;;7.40;93.80;;;;;;5069615;28;19920;-47
2023/10/20 04:58:45;;;;;;;;;;;7.30;93.80;;;;;;5064794;28;19912;-51
2023/10/20 05:01:16;;;;;;;;;;;7.40;93.70;;;;;;5070347;28;19947;-53
2023/10/20 05:03:53;;;;;;;;;;;7.40;93.50;;;;;;5072572;28;19924;-50
2023/10/20 05:06:42;;;;;;;;;;;7.30;93.40;;;;;;5067953;28;19908;-50
2023/10/20 05:09:12;;;;;;;;;;;7.40;93.50;;;;;;5070241;28;19995;-47
2023/10/20 05:11:41;;;;;;;;;;;7.40;93.50;;;;;;5071510;28;19920;-49
2023/10/20 05:14:06;;;;;;;;;;;7.30;93.70;;;;;;5066024;28;19914;-47
2023/10/20 05:16:34;;;;;;;;;;;7.30;93.70;;;;;;5060836;28;20027;-47
2023/10/20 05:19:03;;;;;;;;;;;7.30;93.80;;;;;;5073124;28;20023;-50
2023/10/20 05:21:33;;;;;;;;;;;7.30;93.80;;;;;;5072597;28;19939;-49
2023/10/20 05:24:08;;;;;;;;;;;7.30;93.80;;;;;;5056075;28;19904;-48
2023/10/20 05:26:35;;;;;;;;;;;7.30;93.80;;;;;;5052591;28;19951;-47
2023/10/20 05:29:01;;;;;;;;;;;7.30;93.70;;;;;;5057254;28;19913;-52
2023/10/20 05:31:29;;;;;;;;;;;7.30;93.80;;;;;;5072608;28;20258;-49
2023/10/20 05:33:55;;;;;;;;;;;7.30;93.70;;;;;;5064400;28;19908;-50
2023/10/20 05:36:23;;;;;;;;;;;7.30;93.50;;;;;;5051325;28;20574;-50
2023/10/20 05:38:50;;;;;;;;;;;7.30;93.30;;;;;;5068530;28;19912;-50
2023/10/20 05:41:17;;;;;;;;;;;7.30;93.30;;;;;;5073134;28;19904;-50
2023/10/20 05:43:45;;;;;;;;;;;7.30;93.20;;;;;;5065571;28;20380;-54
2023/10/20 05:46:17;;;;;;;;;;;7.30;93.10;;;;;;5056120;28;19909;-48
2023/10/20 05:48:43;;;;;;;;;;;7.30;92.90;;;;;;5070379;28;19916;-47
2023/10/20 05:51:11;;;;;;;;;;;7.30;92.60;;;;;;5073213;28;20347;-48
2023/10/20 05:53:40;;;;;;;;;;;7.30;92.30;;;;;;5067370;28;19995;-48
2023/10/20 05:56:06;;;;;;;;;;;7.30;92.20;;;;;;5076085;28;19957;-48
2023/10/20 05:58:33;;;;;;;;;;;7.30;92.50;;;;;;5068197;28;19912;-48
2023/10/20 06:01:05;;;;;;;;;;;7.20;92.40;;;;;;5072027;28;19916;-50
2023/10/20 06:03:35;;;;;;;;;;;7.20;92.30;;;;;;5074620;28;19916;-53
2023/10/20 06:06:03;;;;;;;;;;;7.20;92.30;;;;;;5072994;28;19904;-48
2023/10/20 06:08:30;;;;;;;;;;;7.30;92.30;;;;;;5071849;28;19908;-50
2023/10/20 06:11:02;;;;;;;;;;;7.20;92.20;;;;;;5074914;28;19935;-49
2023/10/20 06:13:30;;;;;;;;;;;7.20;92.40;;;;;;5064922;28;19924;-52
2023/10/20 06:16:08;;;;;;;;;;;7.30;92.30;;;;;;5069397;28;20333;-48
2023/10/20 06:18:34;;;;;;;;;;;7.30;92.00;;;;;;5064099;28;19982;-50
2023/10/20 06:20:59;;;;;;;;;;;7.30;92.30;;;;;;5054012;28;20292;-48
2023/10/20 06:23:25;;;;;;;;;;;7.30;92.30;;;;;;5048852;28;19909;-49
2023/10/20 06:25:50;;;;;;;;;;;7.30;92.30;;;;;;5047691;28;20318;-52
2023/10/20 06:28:17;;;;;;;;;;;7.20;92.20;;;;;;5035037;28;19916;-50
2023/10/20 06:30:45;;;;;;;;;;;7.30;92.20;;;;;;5056273;28;19928;-51
2023/10/20 06:33:16;;;;;;;;;;;7.30;92.20;;;;;;5055929;28;19917;-52
2023/10/20 06:35:52;;;;;;;;;;;7.30;92.20;;;;;;5054111;28;19912;-52
2023/10/20 06:38:20;;;;;;;;;;;7.30;92.20;;;;;;5033094;28;20318;-51
2023/10/20 06:40:51;;;;;;;;;;;7.30;91.80;;;;;;5046290;28;20277;-48
2023/10/20 06:43:19;;;;;;;;;;;7.30;91.70;;;;;;5053644;28;19966;-48
2023/10/20 06:45:54;;;;;;;;;;;7.30;91.80;;;;;;5051412;28;20215;-49
2023/10/20 06:48:20;;;;;;;;;;;7.20;91.70;;;;;;5017728;28;19980;-49
2023/10/20 06:50:48;;;;;;;;;;;7.30;92.00;;;;;;5035372;28;19913;-48
2023/10/20 06:53:15;;;;;;;;;;;7.30;92.10;;;;;;5048386;28;19908;-49
2023/10/20 06:55:52;;;;;;;;;;;7.30;91.60;;;;;;5062158;28;20542;-48
2023/10/20 06:58:20;;;;;;;;;;;7.20;92.00;;;;;;5046849;28;19935;-48
2023/10/20 07:00:47;;;;;;;;;;;7.20;92.00;;;;;;5053318;28;20360;-48
2023/10/20 07:03:13;;;;;;;;;;;7.20;92.00;;;;;;5054371;28;20307;-48
2023/10/20 07:05:43;;;;;;;;;;;7.20;92.00;;;;;;5054128;28;19958;-50
2023/10/20 07:08:10;;;;;;;;;;;7.20;91.80;;;;;;5048718;28;19909;-52
2023/10/20 07:10:40;;;;;;;;;;;7.20;92.00;;;;;;5045388;28;19909;-49
2023/10/20 07:13:07;;;;;;;;;;;7.20;92.20;;;;;;5069746;28;19912;-49
2023/10/20 07:15:35;;;;;;;;;;;7.20;92.00;;;;;;5071959;28;20257;-49
2023/10/20 07:18:02;;;;;;;;;;;7.20;92.00;;;;;;5071684;28;19925;-48
2023/10/20 07:20:38;;;;;;;;;;;7.20;92.10;;;;;;5056165;28;20463;-48
2023/10/20 07:23:08;;;;;;;;;;;7.30;92.20;;;;;;5072885;28;19913;-52
2023/10/20 07:25:34;;;;;;;;;;;7.30;91.80;;;;;;5070712;28;19916;-51
2023/10/20 07:28:00;;;;;;;;;;;7.30;91.90;;;;;;5070993;28;19917;-47
2023/10/20 07:30:30;;;;;;;;;;;7.20;92.10;;;;;;5068103;28;20537;-51
2023/10/20 07:32:57;;;;;;;;;;;7.20;92.10;;;;;;5065918;28;19924;-51
2023/10/20 07:35:25;;;;;;;;;;;7.20;91.90;;;;;;5069993;28;20117;-52
2023/10/20 07:37:51;;;;;;;;;;;7.20;91.80;;;;;;5071604;28;19999;-49
2023/10/20 07:40:18;;;;;;;;;;;7.20;91.90;;;;;;5062534;28;20421;-48
2023/10/20 07:42:45;;;;;;;;;;;7.20;91.60;;;;;;5064189;28;19951;-51
2023/10/20 07:45:14;;;;;;;;;;;7.20;91.70;;;;;;5066685;28;19912;-52
2023/10/20 07:47:42;;;;;;;;;;;7.30;91.70;;;;;;5057935;28;19935;-50
2023/10/20 07:50:09;;;;;;;;;;;7.30;91.50;;;;;;5067720;28;20261;-50
2023/10/20 07:52:36;;;;;;;;;;;7.30;91.80;;;;;;5069506;28;19909;-51
2023/10/20 07:55:02;;;;;;;;;;;7.30;91.80;;;;;;5070897;28;19912;-49
2023/10/20 07:57:31;;;;;;;;;;;7.30;91.80;;;;;;5070864;28;19974;-51
2023/10/20 07:59:56;;;;;;;;;;;7.30;91.80;;;;;;5070274;28;19920;-48
2023/10/20 08:02:23;;;;;;;;;;;7.30;91.60;;;;;;5069391;28;19935;-47
2023/10/20 08:04:50;;;;;;;;;;;7.30;91.70;;;;;;5070547;28;20003;-49
2023/10/20 08:07:24;;;;;;;;;;;7.30;91.80;;;;;;5072097;28;19908;-47
2023/10/20 08:09:51;;;;;;;;;;;7.30;92.10;;;;;;5071916;28;19912;-50
2023/10/20 08:12:18;;;;;;;;;;;7.20;92.30;;;;;;5057992;28;19917;-51
2023/10/20 08:14:45;;;;;;;;;;;7.20;92.60;;;;;;5032474;28;19924;-51
2023/10/20 08:17:12;;;;;;;;;;;7.20;92.90;;;;;;5032175;28;20019;-50
2023/10/20 08:19:44;;;;;;;;;;;7.20;92.90;;;;;;5045676;28;20007;-54
2023/10/20 08:22:11;;;;;;;;;;;7.30;92.90;;;;;;5033838;28;19917;-54
2023/10/20 08:24:36;;;;;;;;;;;7.20;93.00;;;;;;5051668;28;19967;-51
2023/10/20 08:27:02;;;;;;;;;;;7.20;93.30;;;;;;5040781;28;19916;-52
2023/10/20 08:29:30;;;;;;;;;;;7.20;93.40;;;;;;5046131;28;19916;-51
2023/10/20 08:31:57;;;;;;;;;;;7.20;93.70;;;;;;5049891;28;20007;-51
2023/10/20 08:34:24;;;;;;;;;;;7.20;93.50;;;;;;5030881;28;19920;-51
2023/10/20 08:36:49;;;;;;;;;;;7.10;93.30;;;;;;5046679;28;19916;-53
2023/10/20 08:39:20;;;;;;;;;;;7.10;93.40;;;;;;5045458;28;19913;-54
2023/10/20 08:41:49;;;;;;;;;;;7.10;93.50;;;;;;5044954;28;19908;-50
2023/10/20 08:44:16;;;;;;;;;;;7.10;93.60;;;;;;5050556;28;19913;-54
2023/10/20 08:46:46;;;;;;;;;;;7.10;93.50;;;;;;5018209;28;19916;-52
2023/10/20 08:49:13;;;;;;;;;;;7.20;93.60;;;;;;5046416;28;20732;-53
2023/10/20 08:51:40;;;;;;;;;;;7.20;93.60;;;;;;5051458;28;19917;-54
2023/10/20 08:54:09;;;;;;;;;;;7.20;93.50;;;;;;5051153;28;19927;-54
2023/10/20 08:56:36;;;;;;;;;;;7.20;93.50;;;;;;5049507;28;20008;-57
2023/10/20 08:59:05;;;;;;;;;;;7.10;93.50;;;;;;5051865;28;20252;-52
2023/10/20 09:01:33;;;;;;;;;;;7.10;93.60;;;;;;5043422;28;19971;-49
2023/10/20 09:04:00;;;;;;;;;;;7.20;93.60;;;;;;5050684;28;20300;-51
2023/10/20 09:06:27;;;;;;;;;;;7.10;93.60;;;;;;5049491;28;19917;-53
2023/10/20 09:08:57;;;;;;;;;;;7.10;93.60;;;;;;5037779;28;19916;-54
2023/10/20 09:11:29;;;;;;;;;;;7.20;93.70;;;;;;5043356;28;19927;-53
2023/10/20 09:13:58;;;;;;;;;;;7.10;93.50;;;;;;5066993;28;19917;-54
2023/10/20 09:16:25;;;;;;;;;;;7.10;93.60;;;;;;5065214;28;19916;-50
2023/10/20 09:19:03;;;;;;;;;;;7.10;93.70;;;;;;5066182;28;19916;-48
2023/10/20 09:21:28;;;;;;;;;;;7.20;93.70;;;;;;5077306;28;20015;-53
2023/10/20 09:23:58;;;;;;;;;;;7.20;93.60;;;;;;5059810;28;20006;-49
2023/10/20 09:26:25;;;;;;;;;;;7.10;93.60;;;;;;5066987;28;20007;-51
2023/10/20 09:28:53;;;;;;;;;;;7.00;93.70;;;;;;5071528;28;20011;-49
2023/10/20 09:31:22;;;;;;;;;;;7.10;93.80;;;;;;5070510;28;20014;-50
2023/10/20 09:33:48;;;;;;;;;;;7.10;93.60;;;;;;5067245;28;20636;-51
2023/10/20 09:36:24;;;;;;;;;;;7.10;93.50;;;;;;5065913;28;20015;-49
2023/10/20 09:39:11;;;;;;;;;;;7.10;93.50;;;;;;5068306;28;20280;-53
2023/10/20 09:41:42;;;;;;;;;;;7.20;93.40;;;;;;5068419;28;19909;-54
2023/10/20 09:44:14;;;;;;;;;;;7.20;93.50;;;;;;5051511;28;19912;-54
2023/10/20 09:46:46;;;;;;;;;;;7.10;93.50;;;;;;5066782;28;20460;-53
2023/10/20 09:49:36;;;;;;;;;;;7.20;93.50;;;;;;5068679;28;19919;-52
2023/10/20 09:52:05;;;;;;;;;;;7.20;93.50;;;;;;5069612;28;19908;-50
2023/10/20 09:54:33;;;;;;;;;;;7.20;93.50;;;;;;5068077;28;19923;-53
2023/10/20 09:57:05;;;;;;;;;;;7.20;93.40;;;;;;5068268;28;19916;-56
2023/10/20 09:59:34;;;;;;;;;;;7.20;93.60;;;;;;5067595;28;19912;-53
2023/10/20 10:02:01;;;;;;;;;;;7.20;93.70;;;;;;5065893;28;19908;-54
2023/10/20 10:04:36;;;;;;;;;;;7.20;93.80;;;;;;5064961;28;19913;-56
2023/10/20 10:07:04;;;;;;;;;;;7.20;93.70;;;;;;5073547;28;19912;-55
2023/10/20 10:09:48;;;;;;;;;;;7.20;93.90;;;;;;5066336;28;20015;-57
2023/10/20 10:12:23;;;;;;;;;;;7.30;94.00;;;;;;5070672;28;19959;-55
2023/10/20 10:15:07;;;;;;;;;;;7.30;93.80;;;;;;5070193;28;20268;-58
2023/10/20 10:17:49;;;;;;;;;;;7.30;94.10;;;;;;5069261;28;20318;-55
2023/10/20 10:20:23;;;;;;;;;;;7.30;94.20;;;;;;5068501;28;19912;-53
2023/10/20 10:22:58;;;;;;;;;;;7.30;94.20;;;;;;5072955;28;19912;-53
2023/10/20 10:25:45;;;;;;;;;;;7.20;94.40;;;;;;5073047;28;19955;-56
2023/10/20 10:28:12;;;;;;;;;;;7.20;94.30;;;;;;5064664;28;19909;-56
2023/10/20 10:30:39;;;;;;;;;;;7.20;94.40;;;;;;5062917;28;20440;-53
2023/10/20 10:33:11;;;;;;;;;;;7.20;94.50;;;;;;5063850;28;19974;-56
2023/10/20 10:35:51;;;;;;;;;;;7.20;94.50;;;;;;5062396;28;19904;-57
2023/10/20 10:38:21;;;;;;;;;;;7.20;94.60;;;;;;5061776;28;19917;-54
2023/10/20 10:40:51;;;;;;;;;;;7.20;94.60;;;;;;5059091;28;20684;-55
2023/10/20 10:43:18;;;;;;;;;;;7.20;94.60;;;;;;5064131;28;19958;-56
2023/10/20 10:45:52;;;;;;;;;;;7.20;94.60;;;;;;5083543;28;20357;-58
2023/10/20 10:48:18;;;;;;;;;;;7.10;94.50;;;;;;5071983;28;20292;-57
2023/10/20 10:50:46;;;;;;;;;;;7.20;94.70;;;;;;5062804;28;19909;-53
2023/10/20 10:53:13;;;;;;;;;;;7.20;94.80;;;;;;5059297;28;20003;-51
2023/10/20 10:55:40;;;;;;;;;;;7.10;94.70;;;;;;5073206;28;19939;-51
2023/10/20 10:58:17;;;;;;;;;;;7.20;94.80;;;;;;5059798;28;19920;-56
2023/10/20 11:00:45;;;;;;;;;;;7.10;94.80;;;;;;5063699;28;19975;-51
2023/10/20 11:03:13;;;;;;;;;;;7.20;95.00;;;;;;5064423;28;19912;-54
2023/10/20 11:05:41;;;;;;;;;;;7.20;94.90;;;;;;5067303;28;20029;-55
2023/10/20 11:08:13;;;;;;;;;;;7.20;95.00;;;;;;5050135;28;19913;-53
2023/10/20 11:10:49;;;;;;;;;;;7.20;94.90;;;;;;5068332;28;20225;-51
2023/10/20 11:13:16;;;;;;;;;;;7.20;94.90;;;;;;5070263;28;19924;-54
2023/10/20 11:15:43;;;;;;;;;;;7.10;95.00;;;;;;5065197;28;19908;-56
2023/10/20 11:18:10;;;;;;;;;;;7.10;94.90;;;;;;5069257;28;19912;-49
2023/10/20 11:20:49;;;;;;;;;;;7.10;95.00;;;;;;5065197;28;19923;-54
2023/10/20 11:23:19;;;;;;;;;;;7.00;94.70;;;;;;5070320;28;20272;-51
2023/10/20 11:25:47;;;;;;;;;;;7.10;94.90;;;;;;5064132;28;20335;-49
2023/10/20 11:28:13;;;;;;;;;;;7.10;94.80;;;;;;5067855;28;19912;-51
2023/10/20 11:30:41;;;;;;;;;;;7.10;94.70;;;;;;5067879;28;20376;-55
2023/10/20 11:33:10;;;;;;;;;;;7.10;94.90;;;;;;5064534;28;19909;-50
2023/10/20 11:35:36;;;;;;;;;;;7.20;95.00;;;;;;5084596;28;19917;-53
2023/10/20 11:38:05;;;;;;;;;;;7.10;95.00;;;;;;5070175;28;20013;-55
2023/10/20 11:40:32;;;;;;;;;;;7.10;94.90;;;;;;5063092;28;19912;-55
2023/10/20 11:42:59;;;;;;;;;;;7.10;94.80;;;;;;5063258;28;20435;-58
2023/10/20 11:45:26;;;;;;;;;;;7.10;94.90;;;;;;5065618;28;19971;-56
2023/10/20 11:47:53;;;;;;;;;;;7.10;94.90;;;;;;5068784;28;19974;-53
2023/10/20 11:50:20;;;;;;;;;;;7.10;94.80;;;;;;5069542;28;20257;-56
2023/10/20 11:52:47;;;;;;;;;;;7.10;94.80;;;;;;5064313;28;19962;-54
2023/10/20 11:55:14;;;;;;;;;;;7.20;94.80;;;;;;5057596;28;19986;-56
2023/10/20 11:57:40;;;;;;;;;;;7.10;94.60;;;;;;5061772;28;19973;-55
2023/10/20 12:00:09;;;;;;;;;;;7.20;94.60;;;;;;5069892;28;19908;-57
2023/10/20 12:02:39;;;;;;;;;;;7.20;94.70;;;;;;5064050;28;19908;-55
2023/10/20 12:05:07;;;;;;;;;;;7.20;94.80;;;;;;5070147;28;19912;-53
2023/10/20 12:07:33;;;;;;;;;;;7.20;94.70;;;;;;5065222;28;19912;-49
2023/10/20 12:09:59;;;;;;;;;;;7.10;94.60;;;;;;5067043;28;20393;-53
2023/10/20 12:12:25;;;;;;;;;;;7.10;94.50;;;;;;5063680;28;19939;-53
2023/10/20 12:14:51;;;;;;;;;;;7.00;94.20;;;;;;5068001;28;20261;-54
2023/10/20 12:17:19;;;;;;;;;;;7.00;94.30;;;;;;5069595;28;19951;-51
2023/10/20 12:19:46;;;;;;;;;;;6.90;94.60;;;;;;5064490;28;19914;-56
2023/10/20 12:22:13;;;;;;;;;;;7.00;94.70;;;;;;5060180;28;19912;-50
2023/10/20 12:24:38;;;;;;;;;;;7.00;94.80;;;;;;5061065;28;19921;-53
2023/10/20 12:27:05;;;;;;;;;;;7.00;94.80;;;;;;5064501;28;20568;-56
2023/10/20 12:29:32;;;;;;;;;;;6.90;94.80;;;;;;5063555;28;19916;-52
2023/10/20 12:31:59;;;;;;;;;;;6.90;95.00;;;;;;5068201;28;19918;-56
2023/10/20 12:34:27;;;;;;;;;;;7.00;95.00;;;;;;5075624;28;19913;-54
2023/10/20 12:36:53;;;;;;;;;;;6.90;94.90;;;;;;5056267;28;20310;-53
2023/10/20 12:39:22;;;;;;;;;;;6.90;94.90;;;;;;5067644;28;19912;-56
2023/10/20 12:41:49;;;;;;;;;;;7.00;94.90;;;;;;5062301;28;19928;-56
2023/10/20 12:44:15;;;;;;;;;;;7.00;94.90;;;;;;5059110;28;19909;-55
2023/10/20 12:46:42;;;;;;;;;;;7.10;94.70;;;;;;5070407;28;19947;-55
2023/10/20 12:49:08;;;;;;;;;;;7.10;94.70;;;;;;5057500;28;19912;-51
2023/10/20 12:51:34;;;;;;;;;;;7.10;94.60;;;;;;5066688;28;19957;-56
2023/10/20 12:54:01;;;;;;;;;;;7.10;94.60;;;;;;5067354;28;20352;-49
2023/10/20 12:56:28;;;;;;;;;;;7.10;94.60;;;;;;5060071;28;19909;-55
2023/10/20 12:58:56;;;;;;;;;;;7.20;94.60;;;;;;5060984;28;19916;-55
2023/10/20 13:01:25;;;;;;;;;;;7.20;94.60;;;;;;5057414;28;20029;-56
2023/10/20 13:03:52;;;;;;;;;;;7.20;94.70;;;;;;5064364;28;20341;-55
2023/10/20 13:06:19;;;;;;;;;;;7.10;94.70;;;;;;5065522;28;19913;-57
2023/10/20 13:08:46;;;;;;;;;;;7.10;94.70;;;;;;5070546;28;19958;-57
2023/10/20 13:11:13;;;;;;;;;;;7.20;94.70;;;;;;5068680;28;20265;-57
2023/10/20 13:13:40;;;;;;;;;;;7.20;94.70;;;;;;5073106;28;20304;-56
2023/10/20 13:16:08;;;;;;;;;;;7.20;94.90;;;;;;5066542;28;20297;-57
2023/10/20 13:18:33;;;;;;;;;;;7.20;94.80;;;;;;5067512;28;19962;-55
2023/10/20 13:21:05;;;;;;;;;;;7.20;94.70;;;;;;5059371;28;19920;-54
2023/10/20 13:23:33;;;;;;;;;;;7.10;94.80;;;;;;5065096;28;19916;-54
2023/10/20 13:26:01;;;;;;;;;;;7.10;94.90;;;;;;5062291;28;20037;-53
2023/10/20 13:28:28;;;;;;;;;;;7.20;95.00;;;;;;5058021;28;20345;-55
2023/10/20 13:31:09;;;;;;;;;;;7.20;94.90;;;;;;5047888;28;20235;-49
2023/10/20 13:33:37;;;;;;;;;;;7.20;94.80;;;;;;5062000;28;20006;-52
2023/10/20 13:36:04;;;;;;;;;;;7.20;94.80;;;;;;5062955;28;20355;-49
2023/10/20 13:38:49;;;;;;;;;;;7.20;94.70;;;;;;5059550;28;19940;-50
2023/10/20 13:41:15;;;;;;;;;;;7.20;94.70;;;;;;5064998;28;20344;-51
2023/10/20 13:43:44;;;;;;;;;;;7.30;94.90;;;;;;5063508;28;20046;-55
2023/10/20 13:46:11;;;;;;;;;;;7.20;94.70;;;;;;5056458;28;19920;-51
2023/10/20 13:48:38;;;;;;;;;;;7.20;94.60;;;;;;5064494;28;20555;-50
2023/10/20 13:51:05;;;;;;;;;;;7.20;94.60;;;;;;5062643;28;19912;-49
2023/10/20 13:53:30;;;;;;;;;;;7.20;94.70;;;;;;5064502;28;20352;-50
2023/10/20 13:56:00;;;;;;;;;;;7.20;94.60;;;;;;5064226;28;19908;-53
2023/10/20 13:58:26;;;;;;;;;;;7.20;94.70;;;;;;5060017;28;20261;-49
2023/10/20 14:00:53;;;;;;;;;;;7.20;94.80;;;;;;5061421;28;19956;-50
2023/10/20 14:03:19;;;;;;;;;;;7.20;94.90;;;;;;5072427;28;19954;-54
2023/10/20 14:05:56;;;;;;;;;;;7.20;94.80;;;;;;5062717;28;19917;-51
2023/10/20 14:08:21;;;;;;;;;;;7.20;94.90;;;;;;5065554;28;20349;-51
2023/10/20 14:10:48;;;;;;;;;;;7.20;94.90;;;;;;5066690;28;19908;-50
2023/10/20 14:13:15;;;;;;;;;;;7.20;94.90;;;;;;5050556;28;19939;-50
2023/10/20 14:15:45;;;;;;;;;;;7.20;94.90;;;;;;5039025;28;19935;-53
2023/10/20 14:18:13;;;;;;;;;;;7.20;94.90;;;;;;5050929;28;19975;-51
2023/10/20 14:20:41;;;;;;;;;;;7.20;94.90;;;;;;5049939;28;20277;-52
2023/10/20 14:23:08;;;;;;;;;;;7.30;94.90;;;;;;5045660;28;20227;-52
2023/10/20 14:25:33;;;;;;;;;;;7.20;95.00;;;;;;5046513;28;19995;-54
2023/10/20 14:27:59;;;;;;;;;;;7.20;95.10;;;;;;5046301;28;19916;-51
2023/10/20 14:30:27;;;;;;;;;;;7.30;95.00;;;;;;5042720;28;19916;-49
2023/10/20 14:32:52;;;;;;;;;;;7.20;95.10;;;;;;5050853;28;19916;-50
2023/10/20 14:35:20;;;;;;;;;;;7.20;95.10;;;;;;5046290;28;20337;-49
2023/10/20 14:37:49;;;;;;;;;;;7.20;95.00;;;;;;5046304;28;19944;-54
2023/10/20 14:40:15;;;;;;;;;;;7.20;95.20;;;;;;5038084;28;20003;-51
2023/10/20 14:42:44;;;;;;;;;;;7.30;95.10;;;;;;5044380;28;19959;-52
2023/10/20 14:45:11;;;;;;;;;;;7.30;95.10;;;;;;5046287;28;19978;-59
2023/10/20 14:47:37;;;;;;;;;;;7.30;95.10;;;;;;5044495;28;19916;-52
2023/10/20 14:50:03;;;;;;;;;;;7.30;95.10;;;;;;5044127;28;19917;-50
2023/10/20 14:52:30;;;;;;;;;;;7.20;95.10;;;;;;5041931;28;19913;-49
2023/10/20 14:54:56;;;;;;;;;;;7.20;95.10;;;;;;5043502;28;19926;-52
2023/10/20 14:57:25;;;;;;;;;;;7.20;95.10;;;;;;5044426;28;19917;-52
2023/10/20 14:59:55;;;;;;;;;;;7.30;95.20;;;;;;5043436;28;19999;-54
2023/10/20 15:02:21;;;;;;;;;;;7.30;95.20;;;;;;5029134;28;19999;-54
2023/10/20 15:04:50;;;;;;;;;;;7.30;95.10;;;;;;5038681;28;19944;-55